sensor_id;sensor_type;location;lat;lon;timestamp;P1;durP1;ratioP1;P2;durP2;ratioP2
13319;SDS011;59599;47.608;12.190;2023-03-14T05:00:27;1.47;;;0.60;;
13319;SDS011;59599;47.608;12.190;2023-03-14T05:02:53;2.80;;;0.70;;
13319;SDS011;59599;47.608;12.190;2023-03-14T05:05:19;2.13;;;0.90;;
13319;SDS011;59599;47.608;12.190;2023-03-14T05:07:45;4.17;;;1.87;;
13319;SDS011;59599;47.608;12.190;2023-03-14T05:10:11;3.50;;;1.67;;
13319;SDS011;59599;47.608;12.190;2023-03-14T05:12:37;6.53;;;1.80;;
13319;SDS011;59599;47.608;12.190;2023-03-14T05:15:03;3.83;;;1.40;;
13319;SDS011;59599;47.608;12.190;2023-03-14T05:17:30;2.83;;;0.90;;
13319;SDS011;59599;47.608;12.190;2023-03-14T05:19:57;3.67;;;1.27;;
13319;SDS011;59599;47.608;12.190;2023-03-14T05:22:23;2.87;;;1.70;;
13319;SDS011;59599;47.608;12.190;2023-03-14T05:24:48;3.47;;;1.30;;
13319;SDS011;59599;47.608;12.190;2023-03-14T05:27:14;4.23;;;1.67;;
13319;SDS011;59599;47.608;12.190;2023-03-14T05:29:40;3.13;;;1.37;;
13319;SDS011;59599;47.608;12.190;2023-03-14T05:32:05;1.80;;;1.40;;
13319;SDS011;59599;47.608;12.190;2023-03-14T05:34:31;3.63;;;1.70;;
13319;SDS011;59599;47.608;12.190;2023-03-14T05:36:57;4.93;;;2.20;;
13319;SDS011;59599;47.608;12.190;2023-03-14T05:39:23;4.60;;;2.47;;
13319;SDS011;59599;47.608;12.190;2023-03-14T05:41:49;5.20;;;2.10;;
13319;SDS011;59599;47.608;12.190;2023-03-14T05:44:15;6.37;;;2.00;;
13319;SDS011;59599;47.608;12.190;2023-03-14T05:46:41;3.40;;;1.80;;
13319;SDS011;59599;47.608;12.190;2023-03-14T05:49:06;3.90;;;1.97;;
13319;SDS011;59599;47.608;12.190;2023-03-14T05:51:32;5.70;;;1.97;;
13319;SDS011;59599;47.608;12.190;2023-03-14T05:53:58;3.03;;;1.47;;
13319;SDS011;59599;47.608;12.190;2023-03-14T05:56:24;3.63;;;1.90;;
13319;SDS011;59599;47.608;12.190;2023-03-14T05:58:50;4.93;;;1.90;;
13319;SDS011;59599;47.608;12.190;2023-03-14T06:01:16;4.60;;;2.43;;
13319;SDS011;59599;47.608;12.190;2023-03-14T06:03:42;5.67;;;2.50;;
13319;SDS011;59599;47.608;12.190;2023-03-14T06:06:07;4.37;;;1.83;;
13319;SDS011;59599;47.608;12.190;2023-03-14T06:08:33;3.67;;;1.97;;
13319;SDS011;59599;47.608;12.190;2023-03-14T06:10:59;4.57;;;2.27;;
13319;SDS011;59599;47.608;12.190;2023-03-14T06:13:27;7.60;;;2.70;;
13319;SDS011;59599;47.608;12.190;2023-03-14T06:15:53;3.60;;;2.70;;
13319;SDS011;59599;47.608;12.190;2023-03-14T06:18:19;4.00;;;2.07;;
13319;SDS011;59599;47.608;12.190;2023-03-14T06:20:45;3.70;;;2.03;;
13319;SDS011;59599;47.608;12.190;2023-03-14T06:23:11;4.93;;;2.03;;
13319;SDS011;59599;47.608;12.190;2023-03-14T06:25:37;5.43;;;2.07;;
13319;SDS011;59599;47.608;12.190;2023-03-14T06:28:02;5.10;;;2.37;;
13319;SDS011;59599;47.608;12.190;2023-03-14T06:30:28;6.50;;;3.03;;
13319;SDS011;59599;47.608;12.190;2023-03-14T06:32:54;5.57;;;2.57;;
13319;SDS011;59599;47.608;12.190;2023-03-14T06:35:20;3.27;;;2.40;;
13319;SDS011;59599;47.608;12.190;2023-03-14T06:37:46;5.90;;;2.17;;
13319;SDS011;59599;47.608;12.190;2023-03-14T06:40:11;2.07;;;0.93;;
13319;SDS011;59599;47.608;12.190;2023-03-14T06:42:41;3.50;;;1.00;;
13319;SDS011;59599;47.608;12.190;2023-03-14T06:45:07;5.33;;;1.13;;
13319;SDS011;59599;47.608;12.190;2023-03-14T06:47:34;0.80;;;0.80;;
13319;SDS011;59599;47.608;12.190;2023-03-14T06:49:59;4.03;;;1.03;;
13319;SDS011;59599;47.608;12.190;2023-03-14T06:52:25;1.40;;;0.90;;
13319;SDS011;59599;47.608;12.190;2023-03-14T06:54:51;6.60;;;1.90;;
13319;SDS011;59599;47.608;12.190;2023-03-14T06:57:17;3.47;;;1.90;;
13319;SDS011;59599;47.608;12.190;2023-03-14T06:59:43;10.77;;;2.30;;
13319;SDS011;59599;47.608;12.190;2023-03-14T07:02:11;4.03;;;1.77;;
13319;SDS011;59599;47.608;12.190;2023-03-14T07:04:37;6.27;;;2.20;;
13319;SDS011;59599;47.608;12.190;2023-03-14T07:07:03;4.10;;;2.00;;
13319;SDS011;59599;47.608;12.190;2023-03-14T07:09:29;5.77;;;2.50;;
13319;SDS011;59599;47.608;12.190;2023-03-14T07:11:54;3.47;;;1.83;;
13319;SDS011;59599;47.608;12.190;2023-03-14T07:14:20;5.23;;;2.10;;
13319;SDS011;59599;47.608;12.190;2023-03-14T07:16:46;3.00;;;1.60;;
13319;SDS011;59599;47.608;12.190;2023-03-14T07:19:12;2.17;;;1.57;;
13319;SDS011;59599;47.608;12.190;2023-03-14T07:21:38;3.70;;;1.93;;
13319;SDS011;59599;47.608;12.190;2023-03-14T07:24:04;3.60;;;2.00;;
13319;SDS011;59599;47.608;12.190;2023-03-14T07:26:30;4.33;;;2.13;;
13319;SDS011;59599;47.608;12.190;2023-03-14T07:28:56;2.70;;;1.50;;
13319;SDS011;59599;47.608;12.190;2023-03-14T07:31:22;3.10;;;2.10;;
13319;SDS011;59599;47.608;12.190;2023-03-14T07:33:47;3.60;;;1.60;;
13319;SDS011;59599;47.608;12.190;2023-03-14T07:36:13;3.90;;;2.07;;
13319;SDS011;59599;47.608;12.190;2023-03-14T07:38:39;6.37;;;2.83;;
13319;SDS011;59599;47.608;12.190;2023-03-14T07:41:05;4.47;;;3.17;;
13319;SDS011;59599;47.608;12.190;2023-03-14T07:43:31;4.33;;;2.10;;
13319;SDS011;59599;47.608;12.190;2023-03-14T07:45:58;6.83;;;3.30;;
13319;SDS011;59599;47.608;12.190;2023-03-14T07:48:23;5.03;;;2.57;;
13319;SDS011;59599;47.608;12.190;2023-03-14T07:50:51;5.77;;;3.10;;
13319;SDS011;59599;47.608;12.190;2023-03-14T07:53:18;3.20;;;2.80;;
13319;SDS011;59599;47.608;12.190;2023-03-14T07:55:44;4.37;;;2.10;;
13319;SDS011;59599;47.608;12.190;2023-03-14T07:58:10;2.60;;;1.80;;
13319;SDS011;59599;47.608;12.190;2023-03-14T08:00:35;2.73;;;1.90;;
13319;SDS011;59599;47.608;12.190;2023-03-14T08:03:01;4.03;;;2.23;;
13319;SDS011;59599;47.608;12.190;2023-03-14T08:05:28;4.23;;;2.40;;
13319;SDS011;59599;47.608;12.190;2023-03-14T08:07:53;2.33;;;1.87;;
13319;SDS011;59599;47.608;12.190;2023-03-14T08:10:19;3.20;;;1.80;;
13319;SDS011;59599;47.608;12.190;2023-03-14T08:12:49;5.20;;;2.40;;
13319;SDS011;59599;47.608;12.190;2023-03-14T08:15:15;5.10;;;1.83;;
13319;SDS011;59599;47.608;12.190;2023-03-14T08:17:41;3.63;;;1.77;;
13319;SDS011;59599;47.608;12.190;2023-03-14T08:20:07;3.03;;;2.07;;
13319;SDS011;59599;47.608;12.190;2023-03-14T08:22:35;5.43;;;3.63;;
13319;SDS011;59599;47.608;12.190;2023-03-14T08:25:01;4.07;;;2.23;;
13319;SDS011;59599;47.608;12.190;2023-03-14T08:27:27;2.60;;;1.60;;
13319;SDS011;59599;47.608;12.190;2023-03-14T08:29:52;2.13;;;1.63;;
13319;SDS011;59599;47.608;12.190;2023-03-14T08:32:19;4.40;;;2.73;;
13319;SDS011;59599;47.608;12.190;2023-03-14T08:34:45;2.83;;;1.50;;
13319;SDS011;59599;47.608;12.190;2023-03-14T08:37:11;2.80;;;1.83;;
13319;SDS011;59599;47.608;12.190;2023-03-14T08:39:37;4.83;;;2.17;;
13319;SDS011;59599;47.608;12.190;2023-03-14T08:42:03;5.67;;;3.70;;
13319;SDS011;59599;47.608;12.190;2023-03-14T08:44:29;4.60;;;2.90;;
13319;SDS011;59599;47.608;12.190;2023-03-14T08:46:55;2.37;;;1.37;;
13319;SDS011;59599;47.608;12.190;2023-03-14T08:49:20;2.07;;;1.30;;
13319;SDS011;59599;47.608;12.190;2023-03-14T08:51:46;2.13;;;1.40;;
13319;SDS011;59599;47.608;12.190;2023-03-14T08:54:12;2.33;;;1.77;;
13319;SDS011;59599;47.608;12.190;2023-03-14T08:56:38;3.20;;;1.77;;
13319;SDS011;59599;47.608;12.190;2023-03-14T08:59:03;3.70;;;1.80;;
13319;SDS011;59599;47.608;12.190;2023-03-14T09:01:30;5.80;;;2.30;;
13319;SDS011;59599;47.608;12.190;2023-03-14T09:03:55;4.63;;;2.70;;
13319;SDS011;59599;47.608;12.190;2023-03-14T09:06:21;5.27;;;2.77;;
13319;SDS011;59599;47.608;12.190;2023-03-14T09:08:47;3.80;;;2.00;;
13319;SDS011;59599;47.608;12.190;2023-03-14T09:11:14;3.73;;;1.60;;
13319;SDS011;59599;47.608;12.190;2023-03-14T09:13:39;3.33;;;1.83;;
13319;SDS011;59599;47.608;12.190;2023-03-14T09:16:06;2.60;;;1.50;;
13319;SDS011;59599;47.608;12.190;2023-03-14T09:18:32;1.53;;;1.17;;
13319;SDS011;59599;47.608;12.190;2023-03-14T09:20:58;1.60;;;1.10;;
13319;SDS011;59599;47.608;12.190;2023-03-14T09:23:24;1.93;;;1.20;;
13319;SDS011;59599;47.608;12.190;2023-03-14T09:25:56;0.80;;;0.60;;
13319;SDS011;59599;47.608;12.190;2023-03-14T09:28:23;1.17;;;1.03;;
13319;SDS011;59599;47.608;12.190;2023-03-14T09:30:49;1.90;;;1.07;;
13319;SDS011;59599;47.608;12.190;2023-03-14T09:33:15;0.60;;;0.60;;
13319;SDS011;59599;47.608;12.190;2023-03-14T09:35:41;0.93;;;0.40;;
13319;SDS011;59599;47.608;12.190;2023-03-14T09:38:07;0.53;;;0.30;;
13319;SDS011;59599;47.608;12.190;2023-03-14T09:40:34;0.20;;;0.20;;
13319;SDS011;59599;47.608;12.190;2023-03-14T09:43:00;2.43;;;1.20;;
13319;SDS011;59599;47.608;12.190;2023-03-14T09:45:31;0.70;;;0.70;;
13319;SDS011;59599;47.608;12.190;2023-03-14T09:47:58;0.43;;;0.43;;
13319;SDS011;59599;47.608;12.190;2023-03-14T09:50:25;1.93;;;0.80;;
13319;SDS011;59599;47.608;12.190;2023-03-14T09:52:56;0.83;;;0.57;;
13319;SDS011;59599;47.608;12.190;2023-03-14T09:55:25;1.43;;;0.70;;
13319;SDS011;59599;47.608;12.190;2023-03-14T09:57:54;1.03;;;0.63;;
13319;SDS011;59599;47.608;12.190;2023-03-14T10:00:23;0.40;;;0.40;;
13319;SDS011;59599;47.608;12.190;2023-03-14T10:05:37;0.80;;;0.70;;
13319;SDS011;59599;47.608;12.190;2023-03-14T10:08:03;1.03;;;0.60;;
13319;SDS011;59599;47.608;12.190;2023-03-14T10:10:29;1.90;;;1.33;;
13319;SDS011;59599;47.608;12.190;2023-03-14T10:12:57;1.30;;;0.80;;
13319;SDS011;59599;47.608;12.190;2023-03-14T10:15:31;0.30;;;0.30;;
13319;SDS011;59599;47.608;12.190;2023-03-14T10:17:59;0.67;;;0.67;;
13319;SDS011;59599;47.608;12.190;2023-03-14T10:22:58;0.50;;;0.50;;
13319;SDS011;59599;47.608;12.190;2023-03-14T10:25:46;0.73;;;0.50;;
13319;SDS011;59599;47.608;12.190;2023-03-14T10:28:33;2.47;;;1.20;;
13319;SDS011;59599;47.608;12.190;2023-03-14T10:31:03;2.93;;;2.07;;
13319;SDS011;59599;47.608;12.190;2023-03-14T10:33:31;5.93;;;2.47;;
13319;SDS011;59599;47.608;12.190;2023-03-14T10:36:02;2.17;;;1.27;;
13319;SDS011;59599;47.608;12.190;2023-03-14T10:38:31;1.63;;;1.10;;
13319;SDS011;59599;47.608;12.190;2023-03-14T10:41:01;2.67;;;0.70;;
13319;SDS011;59599;47.608;12.190;2023-03-14T10:43:31;1.23;;;0.40;;
13319;SDS011;59599;47.608;12.190;2023-03-14T10:45:58;0.63;;;0.50;;
13319;SDS011;59599;47.608;12.190;2023-03-14T10:48:34;0.30;;;0.30;;
13319;SDS011;59599;47.608;12.190;2023-03-14T10:53:43;1.53;;;0.50;;
13319;SDS011;59599;47.608;12.190;2023-03-14T10:56:13;0.43;;;0.40;;
13319;SDS011;59599;47.608;12.190;2023-03-14T10:58:41;1.57;;;0.80;;
13319;SDS011;59599;47.608;12.190;2023-03-14T11:04:16;2.07;;;0.90;;
13319;SDS011;59599;47.608;12.190;2023-03-14T11:06:56;0.60;;;0.50;;
13319;SDS011;59599;47.608;12.190;2023-03-14T11:14:38;2.37;;;1.50;;
13319;SDS011;59599;47.608;12.190;2023-03-14T11:17:15;3.73;;;1.20;;
13319;SDS011;59599;47.608;12.190;2023-03-14T11:20:50;2.07;;;1.20;;
13319;SDS011;59599;47.608;12.190;2023-03-14T11:23:15;1.30;;;0.90;;
13319;SDS011;59599;47.608;12.190;2023-03-14T11:28:45;4.30;;;1.50;;
13319;SDS011;59599;47.608;12.190;2023-03-14T11:39:15;1.33;;;1.00;;
13319;SDS011;59599;47.608;12.190;2023-03-14T11:41:46;0.57;;;0.57;;
13319;SDS011;59599;47.608;12.190;2023-03-14T11:44:18;0.93;;;0.70;;
13319;SDS011;59599;47.608;12.190;2023-03-14T11:46:55;1.13;;;0.63;;
13319;SDS011;59599;47.608;12.190;2023-03-14T11:52:14;0.60;;;0.60;;
13319;SDS011;59599;47.608;12.190;2023-03-14T11:54:50;0.87;;;0.60;;
13319;SDS011;59599;47.608;12.190;2023-03-14T11:57:20;0.50;;;0.47;;
13319;SDS011;59599;47.608;12.190;2023-03-14T11:59:58;1.17;;;0.50;;
13319;SDS011;59599;47.608;12.190;2023-03-14T12:10:39;0.50;;;0.50;;
13319;SDS011;59599;47.608;12.190;2023-03-14T12:13:09;0.47;;;0.40;;
13319;SDS011;59599;47.608;12.190;2023-03-14T12:15:40;0.40;;;0.40;;
13319;SDS011;59599;47.608;12.190;2023-03-14T12:18:18;0.40;;;0.40;;
13319;SDS011;59599;47.608;12.190;2023-03-14T12:20:50;1.20;;;0.70;;
13319;SDS011;59599;47.608;12.190;2023-03-14T12:23:19;0.80;;;0.67;;
13319;SDS011;59599;47.608;12.190;2023-03-14T12:25:45;2.37;;;1.47;;
13319;SDS011;59599;47.608;12.190;2023-03-14T12:28:18;0.70;;;0.50;;
13319;SDS011;59599;47.608;12.190;2023-03-14T12:30:46;1.27;;;0.40;;
13319;SDS011;59599;47.608;12.190;2023-03-14T12:35:44;0.40;;;0.40;;
13319;SDS011;59599;47.608;12.190;2023-03-14T12:41:14;0.50;;;0.40;;
13319;SDS011;59599;47.608;12.190;2023-03-14T12:43:45;0.60;;;0.60;;
13319;SDS011;59599;47.608;12.190;2023-03-14T12:48:43;0.43;;;0.40;;
13319;SDS011;59599;47.608;12.190;2023-03-14T12:51:14;0.87;;;0.63;;
13319;SDS011;59599;47.608;12.190;2023-03-14T12:58:35;0.43;;;0.43;;
13319;SDS011;59599;47.608;12.190;2023-03-14T13:01:14;0.70;;;0.50;;
13319;SDS011;59599;47.608;12.190;2023-03-14T13:03:45;0.53;;;0.43;;
13319;SDS011;59599;47.608;12.190;2023-03-14T13:06:12;0.43;;;0.43;;
13319;SDS011;59599;47.608;12.190;2023-03-14T13:08:44;0.30;;;0.30;;
13319;SDS011;59599;47.608;12.190;2023-03-14T13:11:14;0.50;;;0.50;;
13319;SDS011;59599;47.608;12.190;2023-03-14T13:13:45;0.80;;;0.60;;
13319;SDS011;59599;47.608;12.190;2023-03-14T13:16:18;1.67;;;0.67;;
13319;SDS011;59599;47.608;12.190;2023-03-14T13:18:46;0.40;;;0.40;;
13319;SDS011;59599;47.608;12.190;2023-03-14T13:21:26;0.60;;;0.60;;
13319;SDS011;59599;47.608;12.190;2023-03-14T13:23:57;1.10;;;0.80;;
13319;SDS011;59599;47.608;12.190;2023-03-14T13:26:23;1.23;;;0.80;;
13319;SDS011;59599;47.608;12.190;2023-03-14T13:29:16;0.50;;;0.50;;
13319;SDS011;59599;47.608;12.190;2023-03-14T13:31:51;1.03;;;0.70;;
13319;SDS011;59599;47.608;12.190;2023-03-14T13:34:19;0.60;;;0.60;;
13319;SDS011;59599;47.608;12.190;2023-03-14T13:36:45;0.60;;;0.60;;
13319;SDS011;59599;47.608;12.190;2023-03-14T13:39:16;1.00;;;0.70;;
13319;SDS011;59599;47.608;12.190;2023-03-14T13:41:44;1.03;;;0.93;;
13319;SDS011;59599;47.608;12.190;2023-03-14T13:44:17;0.53;;;0.50;;
13319;SDS011;59599;47.608;12.190;2023-03-14T13:47:01;0.77;;;0.70;;
13319;SDS011;59599;47.608;12.190;2023-03-14T13:49:29;0.60;;;0.60;;
13319;SDS011;59599;47.608;12.190;2023-03-14T13:51:57;0.60;;;0.53;;
13319;SDS011;59599;47.608;12.190;2023-03-14T13:54:24;2.20;;;0.50;;
13319;SDS011;59599;47.608;12.190;2023-03-14T13:56:59;0.57;;;0.50;;
13319;SDS011;59599;47.608;12.190;2023-03-14T13:59:30;0.73;;;0.60;;
13319;SDS011;59599;47.608;12.190;2023-03-14T14:01:58;0.60;;;0.60;;
13319;SDS011;59599;47.608;12.190;2023-03-14T14:04:27;0.60;;;0.60;;
13319;SDS011;59599;47.608;12.190;2023-03-14T14:06:57;0.70;;;0.60;;
13319;SDS011;59599;47.608;12.190;2023-03-14T14:09:25;2.63;;;0.50;;
13319;SDS011;59599;47.608;12.190;2023-03-14T14:12:04;0.60;;;0.60;;
13319;SDS011;59599;47.608;12.190;2023-03-14T14:14:40;2.70;;;0.60;;
13319;SDS011;59599;47.608;12.190;2023-03-14T14:17:11;0.80;;;0.80;;
13319;SDS011;59599;47.608;12.190;2023-03-14T14:19:39;1.73;;;0.93;;
13319;SDS011;59599;47.608;12.190;2023-03-14T14:22:08;1.10;;;0.90;;
13319;SDS011;59599;47.608;12.190;2023-03-14T14:24:35;0.67;;;0.60;;
13319;SDS011;59599;47.608;12.190;2023-03-14T14:27:10;0.83;;;0.80;;
13319;SDS011;59599;47.608;12.190;2023-03-14T14:29:56;1.73;;;0.90;;
13319;SDS011;59599;47.608;12.190;2023-03-14T14:32:34;2.23;;;0.80;;
13319;SDS011;59599;47.608;12.190;2023-03-14T14:35:04;2.63;;;1.27;;
13319;SDS011;59599;47.608;12.190;2023-03-14T14:37:31;1.70;;;0.90;;
13319;SDS011;59599;47.608;12.190;2023-03-14T14:40:00;2.87;;;1.00;;
13319;SDS011;59599;47.608;12.190;2023-03-14T14:42:32;1.30;;;1.20;;
13319;SDS011;59599;47.608;12.190;2023-03-14T14:44:58;1.57;;;1.30;;
13319;SDS011;59599;47.608;12.190;2023-03-14T14:47:27;4.00;;;1.20;;
13319;SDS011;59599;47.608;12.190;2023-03-14T14:49:54;1.53;;;1.13;;
13319;SDS011;59599;47.608;12.190;2023-03-14T14:52:43;1.37;;;0.90;;
13319;SDS011;59599;47.608;12.190;2023-03-14T14:55:51;1.17;;;1.00;;
13319;SDS011;59599;47.608;12.190;2023-03-14T14:58:10;2.20;;;1.10;;
13319;SDS011;59599;47.608;12.190;2023-03-14T15:00:39;1.70;;;1.20;;
13319;SDS011;59599;47.608;12.190;2023-03-14T15:03:12;2.43;;;1.23;;
13319;SDS011;59599;47.608;12.190;2023-03-14T15:05:40;1.63;;;1.30;;
13319;SDS011;59599;47.608;12.190;2023-03-14T15:08:09;1.37;;;1.20;;
13319;SDS011;59599;47.608;12.190;2023-03-14T15:10:35;1.90;;;1.40;;
13319;SDS011;59599;47.608;12.190;2023-03-14T15:13:00;1.07;;;0.97;;
13319;SDS011;59599;47.608;12.190;2023-03-14T15:15:26;2.97;;;2.00;;
13319;SDS011;59599;47.608;12.190;2023-03-14T15:17:51;3.17;;;2.10;;
13319;SDS011;59599;47.608;12.190;2023-03-14T15:20:18;1.70;;;1.43;;
13319;SDS011;59599;47.608;12.190;2023-03-14T15:22:44;2.87;;;1.37;;
13319;SDS011;59599;47.608;12.190;2023-03-14T15:25:11;2.17;;;1.40;;
13319;SDS011;59599;47.608;12.190;2023-03-14T15:27:37;2.90;;;1.30;;
13319;SDS011;59599;47.608;12.190;2023-03-14T15:30:14;2.20;;;1.90;;
13319;SDS011;59599;47.608;12.190;2023-03-14T15:32:40;2.20;;;1.50;;
13319;SDS011;59599;47.608;12.190;2023-03-14T15:35:06;4.10;;;2.43;;
13319;SDS011;59599;47.608;12.190;2023-03-14T15:37:32;2.83;;;2.40;;
13319;SDS011;59599;47.608;12.190;2023-03-14T15:39:58;2.90;;;2.47;;
13319;SDS011;59599;47.608;12.190;2023-03-14T15:42:24;1.90;;;1.20;;
13319;SDS011;59599;47.608;12.190;2023-03-14T15:44:50;0.50;;;0.50;;
13319;SDS011;59599;47.608;12.190;2023-03-14T15:47:16;1.53;;;0.57;;
13319;SDS011;59599;47.608;12.190;2023-03-14T15:49:42;1.48;;;1.10;;
13319;SDS011;59599;47.608;12.190;2023-03-14T15:52:09;2.07;;;1.57;;
13319;SDS011;59599;47.608;12.190;2023-03-14T15:54:35;1.43;;;1.30;;
13319;SDS011;59599;47.608;12.190;2023-03-14T15:57:00;2.23;;;1.77;;
13319;SDS011;59599;47.608;12.190;2023-03-14T15:59:26;2.03;;;1.60;;
13319;SDS011;59599;47.608;12.190;2023-03-14T16:01:52;1.77;;;1.30;;
13319;SDS011;59599;47.608;12.190;2023-03-14T16:04:18;3.85;;;1.60;;
13319;SDS011;59599;47.608;12.190;2023-03-14T16:06:44;1.45;;;1.25;;
13319;SDS011;59599;47.608;12.190;2023-03-14T16:09:12;3.65;;;1.60;;
13319;SDS011;59599;47.608;12.190;2023-03-14T16:11:38;2.83;;;2.10;;
13319;SDS011;59599;47.608;12.190;2023-03-14T16:14:04;2.22;;;1.50;;
13319;SDS011;59599;47.608;12.190;2023-03-14T16:16:30;1.60;;;1.30;;
13319;SDS011;59599;47.608;12.190;2023-03-14T16:18:56;2.30;;;1.75;;
13319;SDS011;59599;47.608;12.190;2023-03-14T16:21:21;1.90;;;1.70;;
13319;SDS011;59599;47.608;12.190;2023-03-14T16:23:47;6.32;;;2.10;;
13319;SDS011;59599;47.608;12.190;2023-03-14T16:26:14;1.63;;;1.33;;
13319;SDS011;59599;47.608;12.190;2023-03-14T16:28:42;1.37;;;1.17;;
13319;SDS011;59599;47.608;12.190;2023-03-14T16:31:09;1.40;;;1.30;;
13319;SDS011;59599;47.608;12.190;2023-03-14T16:33:36;1.63;;;1.20;;
13319;SDS011;59599;47.608;12.190;2023-03-14T16:36:03;2.83;;;1.90;;
13319;SDS011;59599;47.608;12.190;2023-03-14T16:38:37;1.77;;;1.43;;
13319;SDS011;59599;47.608;12.190;2023-03-14T16:41:06;1.27;;;1.10;;
13319;SDS011;59599;47.608;12.190;2023-03-14T16:43:36;2.33;;;1.70;;
13319;SDS011;59599;47.608;12.190;2023-03-14T16:46:03;3.77;;;1.50;;
13319;SDS011;59599;47.608;12.190;2023-03-14T16:48:29;1.07;;;0.97;;
13319;SDS011;59599;47.608;12.190;2023-03-14T16:50:55;1.17;;;1.07;;
13319;SDS011;59599;47.608;12.190;2023-03-14T16:53:21;0.67;;;0.67;;
13319;SDS011;59599;47.608;12.190;2023-03-14T16:55:48;0.60;;;0.60;;
13319;SDS011;59599;47.608;12.190;2023-03-14T16:58:15;2.40;;;1.20;;
13319;SDS011;59599;47.608;12.190;2023-03-14T17:00:40;0.70;;;0.70;;
13319;SDS011;59599;47.608;12.190;2023-03-14T17:03:06;1.00;;;0.90;;
13319;SDS011;59599;47.608;12.190;2023-03-14T17:05:32;1.37;;;0.90;;
13319;SDS011;59599;47.608;12.190;2023-03-14T17:07:58;3.87;;;1.57;;
13319;SDS011;59599;47.608;12.190;2023-03-14T17:10:24;1.70;;;1.37;;
13319;SDS011;59599;47.608;12.190;2023-03-14T17:12:50;3.00;;;1.77;;
13319;SDS011;59599;47.608;12.190;2023-03-14T17:15:16;2.23;;;1.40;;
13319;SDS011;59599;47.608;12.190;2023-03-14T17:17:42;4.13;;;1.70;;
13319;SDS011;59599;47.608;12.190;2023-03-14T17:20:08;2.27;;;1.20;;
13319;SDS011;59599;47.608;12.190;2023-03-14T17:22:35;1.80;;;1.43;;
13319;SDS011;59599;47.608;12.190;2023-03-14T17:25:01;2.60;;;1.90;;
13319;SDS011;59599;47.608;12.190;2023-03-14T17:27:27;3.30;;;1.97;;
13319;SDS011;59599;47.608;12.190;2023-03-14T17:29:53;2.40;;;1.80;;
13319;SDS011;59599;47.608;12.190;2023-03-14T17:32:19;3.63;;;1.70;;
13319;SDS011;59599;47.608;12.190;2023-03-14T17:34:45;3.87;;;2.30;;
13319;SDS011;59599;47.608;12.190;2023-03-14T17:37:11;4.40;;;1.90;;
13319;SDS011;59599;47.608;12.190;2023-03-14T17:39:37;2.10;;;1.30;;
13319;SDS011;59599;47.608;12.190;2023-03-14T17:42:06;0.60;;;0.60;;
13319;SDS011;59599;47.608;12.190;2023-03-14T17:44:31;4.50;;;2.90;;
13319;SDS011;59599;47.608;12.190;2023-03-14T17:46:58;2.97;;;2.30;;
13319;SDS011;59599;47.608;12.190;2023-03-14T17:49:24;3.67;;;2.27;;
13319;SDS011;59599;47.608;12.190;2023-03-14T17:51:50;6.67;;;3.40;;
13319;SDS011;59599;47.608;12.190;2023-03-14T17:54:16;18.73;;;8.57;;
13319;SDS011;59599;47.608;12.190;2023-03-14T17:56:42;4.13;;;1.90;;
13319;SDS011;59599;47.608;12.190;2023-03-14T17:59:11;6.43;;;2.70;;
13319;SDS011;59599;47.608;12.190;2023-03-14T18:01:36;3.27;;;1.60;;
13319;SDS011;59599;47.608;12.190;2023-03-14T18:04:04;3.17;;;1.87;;
13319;SDS011;59599;47.608;12.190;2023-03-14T18:06:30;2.40;;;1.67;;
13319;SDS011;59599;47.608;12.190;2023-03-14T18:08:56;2.20;;;1.67;;
13319;SDS011;59599;47.608;12.190;2023-03-14T18:11:23;7.27;;;3.83;;
13319;SDS011;59599;47.608;12.190;2023-03-14T18:13:49;6.90;;;3.83;;
13319;SDS011;59599;47.608;12.190;2023-03-14T18:16:15;3.60;;;2.37;;
13319;SDS011;59599;47.608;12.190;2023-03-14T18:18:42;1.40;;;1.00;;
13319;SDS011;59599;47.608;12.190;2023-03-14T18:21:09;1.50;;;1.17;;
13319;SDS011;59599;47.608;12.190;2023-03-14T18:23:35;3.43;;;2.13;;
13319;SDS011;59599;47.608;12.190;2023-03-14T18:26:01;3.77;;;1.90;;
13319;SDS011;59599;47.608;12.190;2023-03-14T18:28:27;2.47;;;1.70;;
13319;SDS011;59599;47.608;12.190;2023-03-14T18:30:59;1.37;;;1.27;;
13319;SDS011;59599;47.608;12.190;2023-03-14T18:33:30;3.57;;;1.07;;
13319;SDS011;59599;47.608;12.190;2023-03-14T18:36:02;3.40;;;1.47;;
13319;SDS011;59599;47.608;12.190;2023-03-14T18:38:31;7.33;;;1.93;;
13319;SDS011;59599;47.608;12.190;2023-03-14T18:41:04;1.87;;;1.37;;
13319;SDS011;59599;47.608;12.190;2023-03-14T18:43:30;3.17;;;1.20;;
13319;SDS011;59599;47.608;12.190;2023-03-14T18:45:56;2.50;;;1.30;;
13319;SDS011;59599;47.608;12.190;2023-03-14T18:48:22;1.70;;;1.50;;
13319;SDS011;59599;47.608;12.190;2023-03-14T18:50:49;2.57;;;1.67;;
13319;SDS011;59599;47.608;12.190;2023-03-14T18:53:15;3.87;;;1.90;;
13319;SDS011;59599;47.608;12.190;2023-03-14T18:55:40;3.03;;;2.00;;
13319;SDS011;59599;47.608;12.190;2023-03-14T18:58:06;13.83;;;9.03;;
13319;SDS011;59599;47.608;12.190;2023-03-14T19:00:31;4.63;;;2.80;;
13319;SDS011;59599;47.608;12.190;2023-03-14T19:02:58;5.43;;;3.03;;
13319;SDS011;59599;47.608;12.190;2023-03-14T19:05:23;5.30;;;2.40;;
13319;SDS011;59599;47.608;12.190;2023-03-14T19:07:49;4.50;;;2.20;;
13319;SDS011;59599;47.608;12.190;2023-03-14T19:10:15;2.27;;;1.80;;
13319;SDS011;59599;47.608;12.190;2023-03-14T19:12:41;3.47;;;2.37;;
13319;SDS011;59599;47.608;12.190;2023-03-14T19:15:07;5.23;;;2.30;;
13319;SDS011;59599;47.608;12.190;2023-03-14T19:17:33;3.13;;;1.97;;
13319;SDS011;59599;47.608;12.190;2023-03-14T19:19:59;4.83;;;2.40;;
13319;SDS011;59599;47.608;12.190;2023-03-14T19:22:24;5.63;;;2.40;;
13319;SDS011;59599;47.608;12.190;2023-03-14T19:24:50;5.03;;;3.57;;
13319;SDS011;59599;47.608;12.190;2023-03-14T19:27:18;3.50;;;2.03;;
13319;SDS011;59599;47.608;12.190;2023-03-14T19:29:45;2.87;;;1.80;;
13319;SDS011;59599;47.608;12.190;2023-03-14T19:32:10;5.43;;;2.73;;
13319;SDS011;59599;47.608;12.190;2023-03-14T19:34:36;6.97;;;4.30;;
13319;SDS011;59599;47.608;12.190;2023-03-14T19:37:02;4.47;;;2.70;;
13319;SDS011;59599;47.608;12.190;2023-03-14T19:39:28;4.33;;;1.83;;
13319;SDS011;59599;47.608;12.190;2023-03-14T19:41:54;4.13;;;1.90;;
13319;SDS011;59599;47.608;12.190;2023-03-14T19:44:21;2.53;;;1.03;;
13319;SDS011;59599;47.608;12.190;2023-03-14T19:46:51;3.13;;;1.10;;
13319;SDS011;59599;47.608;12.190;2023-03-14T19:49:17;2.30;;;1.17;;
13319;SDS011;59599;47.608;12.190;2023-03-14T19:51:43;3.10;;;1.10;;
13319;SDS011;59599;47.608;12.190;2023-03-14T19:54:08;1.60;;;1.03;;
13319;SDS011;59599;47.608;12.190;2023-03-14T19:56:34;1.73;;;1.20;;
13319;SDS011;59599;47.608;12.190;2023-03-14T19:59:02;3.37;;;1.00;;
13319;SDS011;59599;47.608;12.190;2023-03-14T20:01:27;3.10;;;1.30;;
13319;SDS011;59599;47.608;12.190;2023-03-14T20:03:53;3.00;;;2.07;;
13319;SDS011;59599;47.608;12.190;2023-03-14T20:06:19;2.60;;;1.60;;
13319;SDS011;59599;47.608;12.190;2023-03-14T20:08:45;2.63;;;2.10;;
13319;SDS011;59599;47.608;12.190;2023-03-14T20:11:11;5.07;;;3.00;;
13319;SDS011;59599;47.608;12.190;2023-03-14T20:13:37;6.33;;;3.20;;
13319;SDS011;59599;47.608;12.190;2023-03-14T20:16:04;5.77;;;3.93;;
13319;SDS011;59599;47.608;12.190;2023-03-14T20:18:30;5.30;;;3.83;;
13319;SDS011;59599;47.608;12.190;2023-03-14T20:20:56;4.87;;;3.40;;
13319;SDS011;59599;47.608;12.190;2023-03-14T20:23:22;9.50;;;3.77;;
13319;SDS011;59599;47.608;12.190;2023-03-14T20:25:54;5.20;;;3.67;;
13319;SDS011;59599;47.608;12.190;2023-03-14T20:28:21;6.50;;;3.80;;